Weather at Falcone–Borsellino Airport

Public forecast

Using degrees Celsius for public forecast. Weather courtesy of forecast.io.

Current aviation weather report (METAR) for Falcone–Borsellino Airport

Retrieved 2020/11/26 02:20 UTC (30 minutes ago):

LICJ 260220Z 19004KT CAVOK 13/09 Q1021

Aviation forecast (TAF) for Falcone–Borsellino Airport

Retrieved 2020-11-26 00:21 UTC (2 hours ago):

TAF LICJ 252300Z 2600/2624 07010KT 9999 SCT050 BECMG 2608/2610 16010KT BECMG 2615/2617 VRB05KT